createdAt,value
2023-04-09T00:01:29.914Z,43.40
2023-04-09T00:03:59.088Z,37.77
2023-04-09T00:06:27.185Z,36.50
2023-04-09T00:08:54.970Z,41.70
2023-04-09T00:11:22.765Z,41.13
2023-04-09T00:13:50.715Z,39.13
2023-04-09T00:16:18.518Z,41.40
2023-04-09T00:18:46.451Z,46.93
2023-04-09T00:21:16.162Z,41.00
2023-04-09T00:23:43.927Z,44.27
2023-04-09T00:26:11.628Z,42.47
2023-04-09T00:28:39.373Z,41.57
2023-04-09T00:31:07.085Z,39.30
2023-04-09T00:33:34.785Z,41.87
2023-04-09T00:36:02.933Z,42.40
2023-04-09T00:38:31.993Z,40.57
2023-04-09T00:40:59.734Z,43.73
2023-04-09T00:43:27.936Z,41.77
2023-04-09T00:45:55.941Z,42.50
2023-04-09T00:48:23.866Z,40.90
2023-04-09T00:50:51.632Z,44.20
2023-04-09T00:53:19.900Z,43.50
2023-04-09T00:55:48.946Z,42.03
2023-04-09T00:58:20.532Z,44.33
2023-04-09T01:00:48.380Z,40.23
2023-04-09T01:03:16.325Z,39.80
2023-04-09T01:05:52.239Z,35.97
2023-04-09T01:08:30.900Z,39.37
2023-04-09T01:11:09.004Z,44.47
2023-04-09T01:13:43.382Z,42.72
2023-04-09T01:16:13.356Z,41.70
2023-04-09T01:18:45.579Z,37.80
2023-04-09T01:21:15.350Z,35.67
2023-04-09T01:23:55.686Z,38.67
2023-04-09T01:26:42.409Z,39.03
2023-04-09T01:29:12.214Z,40.43
2023-04-09T01:31:43.465Z,36.10
2023-04-09T01:34:12.487Z,37.40
2023-04-09T01:36:41.408Z,35.77
2023-04-09T01:39:09.645Z,39.30
2023-04-09T01:41:38.947Z,33.70
2023-04-09T01:44:08.694Z,42.03
2023-04-09T01:46:40.370Z,38.63
2023-04-09T01:49:10.352Z,35.53
2023-04-09T01:51:38.616Z,34.80
2023-04-09T01:54:06.628Z,35.70
2023-04-09T01:56:44.044Z,35.83
2023-04-09T01:59:11.858Z,35.50
2023-04-09T02:01:47.850Z,37.30
2023-04-09T02:04:24.816Z,36.70
2023-04-09T02:06:59.566Z,35.07
2023-04-09T02:09:31.971Z,34.97
2023-04-09T02:12:06.737Z,40.57
2023-04-09T02:14:35.075Z,36.80
2023-04-09T02:17:04.431Z,33.30
2023-04-09T02:19:50.775Z,31.60
2023-04-09T02:22:18.914Z,35.60
2023-04-09T02:24:48.569Z,37.73
2023-04-09T02:27:24.576Z,36.33
2023-04-09T02:29:52.403Z,39.93
2023-04-09T02:32:21.469Z,36.80
2023-04-09T02:34:49.388Z,33.97
2023-04-09T02:37:21.093Z,30.80
2023-04-09T02:39:48.799Z,29.77
2023-04-09T02:42:16.542Z,33.00
2023-04-09T02:44:44.553Z,34.83
2023-04-09T02:47:12.251Z,35.33
2023-04-09T02:49:41.274Z,37.40
2023-04-09T02:52:10.936Z,35.53
2023-04-09T02:54:38.627Z,41.17
2023-04-09T02:57:06.361Z,37.33
2023-04-09T02:59:35.714Z,33.70
2023-04-09T03:02:03.563Z,38.70
2023-04-09T03:04:31.359Z,36.23
2023-04-09T03:07:00.423Z,38.50
2023-04-09T03:09:28.938Z,35.97
2023-04-09T03:11:57.324Z,33.00
2023-04-09T03:14:25.128Z,34.00
2023-04-09T03:16:52.848Z,35.40
2023-04-09T03:19:20.534Z,38.97
2023-04-09T03:21:49.231Z,40.23
2023-04-09T03:24:18.586Z,39.47
2023-04-09T03:26:46.352Z,43.97
2023-04-09T03:29:14.043Z,39.27
2023-04-09T03:31:41.839Z,40.60
2023-04-09T03:34:09.706Z,41.07
2023-04-09T03:36:38.494Z,40.80
2023-04-09T03:39:06.244Z,40.50
2023-04-09T03:41:35.364Z,38.30
2023-04-09T03:44:03.141Z,39.83
2023-04-09T03:46:30.941Z,34.10
2023-04-09T03:48:58.718Z,42.00
2023-04-09T03:51:27.161Z,38.50
2023-04-09T03:53:54.953Z,37.10
2023-04-09T03:56:23.073Z,37.50
2023-04-09T03:58:52.370Z,34.03
2023-04-09T04:01:20.337Z,35.10
2023-04-09T04:03:48.304Z,37.20
2023-04-09T04:06:16.100Z,39.83
2023-04-09T04:08:44.676Z,36.70
2023-04-09T04:11:12.394Z,37.70
2023-04-09T04:13:40.186Z,33.97
2023-04-09T04:16:10.977Z,36.20
2023-04-09T04:18:39.004Z,37.00
2023-04-09T04:21:06.978Z,39.70
2023-04-09T04:23:35.727Z,43.33
2023-04-09T04:26:03.477Z,45.70
2023-04-09T04:28:31.210Z,36.27
2023-04-09T04:30:58.918Z,49.53
2023-04-09T04:33:27.965Z,37.07
2023-04-09T04:36:04.583Z,47.37
2023-04-09T04:38:32.287Z,44.70
2023-04-09T04:41:00.012Z,42.60
2023-04-09T04:43:27.767Z,48.80
2023-04-09T04:45:55.793Z,47.27
2023-04-09T04:48:23.664Z,48.50
2023-04-09T04:50:58.037Z,46.70
2023-04-09T04:53:25.856Z,44.83
2023-04-09T04:55:53.937Z,45.43
2023-04-09T04:58:21.726Z,44.23
2023-04-09T05:00:49.526Z,48.03
2023-04-09T05:03:17.357Z,45.97
2023-04-09T05:05:45.985Z,46.87
2023-04-09T05:08:15.196Z,48.80
2023-04-09T05:10:43.848Z,44.23
2023-04-09T05:13:11.683Z,52.23
2023-04-09T05:15:40.473Z,44.03
2023-04-09T05:18:08.610Z,48.97
2023-04-09T05:20:36.619Z,43.83
2023-04-09T05:23:04.415Z,48.40
2023-04-09T05:25:33.466Z,46.30
2023-04-09T05:28:01.218Z,54.33
2023-04-09T05:30:28.948Z,50.17
2023-04-09T05:32:56.692Z,47.13
2023-04-09T05:35:24.442Z,49.00
2023-04-09T05:37:52.151Z,52.05
2023-04-09T05:40:19.901Z,56.37
2023-04-09T05:42:48.968Z,52.40
2023-04-09T05:45:16.727Z,48.67
2023-04-09T05:47:44.533Z,50.03
2023-04-09T05:50:12.508Z,45.10
2023-04-09T05:52:40.256Z,42.23
2023-04-09T05:55:09.785Z,46.40
2023-04-09T05:57:37.499Z,41.30
2023-04-09T06:00:08.120Z,47.30
2023-04-09T06:02:36.025Z,46.87
2023-04-09T06:05:03.858Z,48.50
2023-04-09T06:07:31.886Z,49.37
2023-04-09T06:09:59.568Z,50.80
2023-04-09T06:12:27.260Z,48.93
2023-04-09T06:14:55.014Z,51.27
2023-04-09T06:17:24.188Z,45.80
2023-04-09T06:19:51.932Z,46.70
2023-04-09T06:22:19.627Z,53.13
2023-04-09T06:24:47.353Z,46.07
2023-04-09T06:27:15.581Z,51.77
2023-04-09T06:29:43.268Z,49.87
2023-04-09T06:32:11.065Z,54.03
2023-04-09T06:34:40.178Z,53.57
2023-04-09T06:37:07.922Z,43.50
2023-04-09T06:39:35.922Z,45.53
2023-04-09T06:42:04.728Z,50.70
2023-04-09T06:44:32.465Z,47.00
2023-04-09T06:47:00.292Z,50.83
2023-04-09T06:49:28.055Z,48.93
2023-04-09T06:51:57.064Z,46.80
2023-04-09T06:54:25.023Z,52.77
2023-04-09T06:56:52.774Z,51.73
2023-04-09T06:59:20.498Z,49.00
2023-04-09T07:01:48.314Z,45.60
2023-04-09T07:04:16.329Z,45.70
2023-04-09T07:06:44.332Z,46.67
2023-04-09T07:09:13.487Z,38.90
2023-04-09T07:11:41.211Z,43.50
2023-04-09T07:14:08.943Z,47.90
2023-04-09T07:16:36.716Z,45.10
2023-04-09T07:19:06.426Z,43.60
2023-04-09T07:21:34.209Z,45.07
2023-04-09T07:24:01.959Z,46.40
2023-04-09T07:26:31.053Z,46.00
2023-04-09T07:28:59.358Z,42.97
2023-04-09T07:31:27.086Z,42.13
2023-04-09T07:33:55.137Z,42.43
2023-04-09T07:36:23.101Z,41.60
2023-04-09T07:38:51.239Z,44.37
2023-04-09T07:41:19.110Z,41.77
2023-04-09T07:43:48.166Z,45.20
2023-04-09T07:46:20.216Z,39.93
2023-04-09T07:48:49.434Z,41.03
2023-04-09T07:51:17.483Z,36.73
2023-04-09T07:53:48.222Z,39.63
2023-04-09T07:56:16.687Z,43.60
2023-04-09T07:58:44.761Z,38.60
2023-04-09T08:01:13.820Z,38.57
2023-04-09T08:03:41.753Z,43.00
2023-04-09T08:06:09.585Z,43.55
2023-04-09T08:08:37.484Z,39.37
2023-04-09T08:11:06.742Z,42.20
2023-04-09T08:13:34.452Z,39.23
2023-04-09T08:16:03.651Z,40.60
2023-04-09T08:18:32.786Z,42.33
2023-04-09T08:21:04.997Z,42.80
2023-04-09T08:23:32.761Z,43.47
2023-04-09T08:26:00.458Z,43.90
2023-04-09T08:28:28.199Z,44.77
2023-04-09T08:30:55.882Z,42.80
2023-04-09T08:33:23.605Z,40.83
2023-04-09T08:35:53.286Z,47.47
2023-04-09T08:38:21.776Z,47.67
2023-04-09T08:40:49.557Z,43.57
2023-04-09T08:43:18.127Z,44.30
2023-04-09T08:45:46.650Z,42.20
2023-04-09T08:48:15.995Z,41.87
2023-04-09T08:50:46.095Z,41.43
2023-04-09T08:53:16.596Z,42.57
2023-04-09T08:55:46.677Z,41.70
2023-04-09T08:58:14.437Z,45.23
2023-04-09T09:00:42.339Z,45.50
2023-04-09T09:03:13.005Z,42.63
2023-04-09T09:05:42.168Z,39.77
2023-04-09T09:08:10.695Z,48.97
2023-04-09T09:10:41.580Z,39.63
2023-04-09T09:13:18.586Z,48.87
2023-04-09T09:15:47.720Z,39.97
2023-04-09T09:18:15.527Z,39.70
2023-04-09T09:20:43.275Z,45.03
2023-04-09T09:23:11.088Z,35.97
2023-04-09T09:25:43.383Z,38.40
2023-04-09T09:28:12.286Z,36.33
2023-04-09T09:30:41.590Z,36.33
2023-04-09T09:33:10.642Z,38.30
2023-04-09T09:35:49.973Z,38.17
2023-04-09T09:38:18.245Z,37.87
2023-04-09T09:40:48.353Z,37.83
2023-04-09T09:43:16.158Z,38.03
2023-04-09T09:45:45.067Z,33.67
2023-04-09T09:48:14.061Z,37.77
2023-04-09T09:50:43.086Z,36.37
2023-04-09T09:53:12.189Z,37.10
2023-04-09T09:55:41.695Z,33.17
2023-04-09T09:58:17.917Z,41.43
2023-04-09T10:00:48.849Z,38.50
2023-04-09T10:03:22.329Z,35.57
2023-04-09T10:05:50.858Z,37.80
2023-04-09T10:08:18.986Z,33.93
2023-04-09T10:10:48.411Z,36.30
2023-04-09T10:13:25.553Z,35.97
2023-04-09T10:15:53.904Z,35.60
2023-04-09T10:18:22.395Z,35.87
2023-04-09T10:20:56.079Z,33.43
2023-04-09T10:23:33.902Z,37.43
2023-04-09T10:26:03.026Z,32.90
2023-04-09T10:28:32.809Z,32.93
2023-04-09T10:31:01.250Z,29.70
2023-04-09T10:33:29.481Z,32.83
2023-04-09T10:36:01.900Z,33.57
2023-04-09T10:38:37.381Z,34.87
2023-04-09T10:41:13.822Z,36.73
2023-04-09T10:43:43.112Z,29.50
2023-04-09T10:46:26.755Z,28.63
2023-04-09T10:49:13.513Z,29.13
2023-04-09T10:51:41.872Z,31.97
2023-04-09T10:54:43.557Z,31.33
2023-04-09T10:57:13.593Z,31.40
2023-04-09T10:59:44.796Z,31.70
2023-04-09T11:02:38.431Z,31.67
2023-04-09T11:05:19.555Z,28.93
2023-04-09T11:07:52.766Z,30.80
2023-04-09T11:10:20.878Z,30.10
2023-04-09T11:12:49.048Z,27.10
2023-04-09T11:15:19.325Z,25.77
2023-04-09T11:17:47.649Z,24.63
2023-04-09T11:20:17.348Z,26.23
2023-04-09T11:22:45.248Z,25.10
2023-04-09T11:25:19.841Z,22.63
2023-04-09T11:27:47.817Z,27.70
2023-04-09T11:30:16.250Z,24.00
2023-04-09T11:32:45.907Z,26.17
2023-04-09T11:35:15.595Z,23.57
2023-04-09T11:37:44.713Z,22.67
2023-04-09T11:40:19.969Z,26.10
2023-04-09T11:42:50.969Z,22.30
2023-04-09T11:45:19.757Z,29.20
2023-04-09T11:47:49.215Z,26.13
2023-04-09T11:50:17.573Z,23.00
2023-04-09T11:52:46.907Z,24.20
2023-04-09T11:55:25.175Z,22.43
2023-04-09T11:57:55.020Z,20.70
2023-04-09T12:00:24.700Z,22.83
2023-04-09T12:03:02.407Z,23.10
2023-04-09T12:05:31.760Z,20.40
2023-04-09T12:08:01.384Z,24.43
2023-04-09T12:10:30.372Z,20.93
2023-04-09T12:13:03.500Z,24.50
2023-04-09T12:15:33.974Z,21.07
2023-04-09T12:18:03.859Z,19.47
2023-04-09T12:20:34.909Z,19.90
2023-04-09T12:23:04.916Z,19.70
2023-04-09T12:25:33.205Z,21.87
2023-04-09T12:28:01.447Z,20.33
2023-04-09T12:30:29.176Z,21.20
2023-04-09T12:32:57.143Z,19.90
2023-04-09T12:35:26.867Z,23.10
2023-04-09T12:37:54.782Z,20.67
2023-04-09T12:40:22.984Z,17.23
2023-04-09T12:42:50.757Z,19.90
2023-04-09T12:45:20.175Z,18.13
2023-04-09T12:47:48.066Z,19.83
2023-04-09T12:50:16.633Z,17.67
2023-04-09T12:52:45.932Z,18.00
2023-04-09T12:55:14.605Z,18.80
2023-04-09T12:57:44.768Z,17.10
2023-04-09T13:00:13.918Z,19.70
2023-04-09T13:02:41.784Z,19.07
2023-04-09T13:05:10.044Z,19.70
2023-04-09T13:07:37.835Z,17.13
2023-04-09T13:10:07.755Z,19.33
2023-04-09T13:12:35.453Z,17.90
2023-04-09T13:15:03.824Z,19.17
2023-04-09T13:17:31.567Z,16.93
2023-04-09T13:19:59.316Z,20.37
2023-04-09T13:22:27.242Z,20.93
2023-04-09T13:24:54.993Z,17.77
2023-04-09T13:27:24.006Z,21.33
2023-04-09T13:29:51.946Z,20.37
2023-04-09T13:32:21.779Z,20.73
2023-04-09T13:34:49.553Z,20.47
2023-04-09T13:37:18.319Z,21.13
2023-04-09T13:39:46.694Z,25.10
2023-04-09T13:42:16.180Z,17.87
2023-04-09T13:44:45.617Z,20.53
2023-04-09T13:47:13.818Z,19.80
2023-04-09T13:49:42.018Z,22.40
2023-04-09T13:52:10.583Z,21.50
2023-04-09T13:54:38.462Z,23.63
2023-04-09T13:57:06.347Z,24.20
2023-04-09T13:59:34.037Z,20.90
2023-04-09T14:02:03.159Z,23.07
2023-04-09T14:04:31.055Z,21.90
2023-04-09T14:06:58.854Z,22.37
2023-04-09T14:09:26.632Z,22.97
2023-04-09T14:11:56.028Z,26.03
2023-04-09T14:14:23.875Z,23.53
2023-04-09T14:16:51.577Z,22.70
2023-04-09T14:19:20.771Z,21.10
2023-04-09T14:21:48.498Z,23.00
2023-04-09T14:24:16.312Z,24.60
2023-04-09T14:26:44.044Z,26.53
2023-04-09T14:29:11.745Z,24.23
2023-04-09T14:31:41.805Z,25.40
2023-04-09T14:34:09.899Z,25.33
2023-04-09T14:36:38.972Z,25.73
2023-04-09T14:39:06.681Z,25.03
2023-04-09T14:41:36.491Z,22.67
2023-04-09T14:44:04.286Z,26.37
2023-04-09T14:46:32.949Z,27.60
2023-04-09T14:49:00.913Z,24.07
2023-04-09T14:51:30.384Z,27.17
2023-04-09T14:53:59.538Z,23.77
2023-04-09T14:56:27.364Z,23.60
2023-04-09T14:58:55.200Z,23.87
2023-04-09T15:01:22.970Z,24.40
2023-04-09T15:03:51.220Z,26.80
2023-04-09T15:06:19.257Z,26.70
2023-04-09T15:08:46.970Z,24.57
2023-04-09T15:11:17.672Z,26.80
2023-04-09T15:13:45.625Z,28.53
2023-04-09T15:16:22.258Z,29.00
2023-04-09T15:18:51.991Z,27.33
2023-04-09T15:21:20.735Z,28.47
2023-04-09T15:23:48.454Z,27.33
2023-04-09T15:26:17.545Z,27.37
2023-04-09T15:28:46.085Z,29.17
2023-04-09T15:31:14.118Z,26.73
2023-04-09T15:33:43.466Z,24.97
2023-04-09T15:36:12.551Z,29.60
2023-04-09T15:38:40.418Z,26.53
2023-04-09T15:41:08.153Z,27.30
2023-04-09T15:43:37.302Z,25.73
2023-04-09T15:46:09.950Z,28.53
2023-04-09T15:48:37.863Z,30.13
2023-04-09T15:51:06.162Z,29.70
2023-04-09T15:53:33.932Z,27.20
2023-04-09T15:56:01.704Z,27.73
2023-04-09T15:58:29.753Z,32.53
2023-04-09T16:00:58.876Z,32.63
2023-04-09T16:03:26.873Z,35.37
2023-04-09T16:05:54.625Z,28.30
2023-04-09T16:08:22.307Z,33.73
2023-04-09T16:10:50.066Z,39.20
2023-04-09T16:13:17.760Z,34.03
2023-04-09T16:15:46.693Z,28.60
2023-04-09T16:18:16.030Z,30.03
2023-04-09T16:20:43.749Z,33.80
2023-04-09T16:23:11.531Z,32.00
2023-04-09T16:25:39.307Z,30.40
2023-04-09T16:28:07.040Z,30.20
2023-04-09T16:30:34.838Z,32.73
2023-04-09T16:33:02.789Z,32.37
2023-04-09T16:35:32.056Z,34.30
2023-04-09T16:37:59.917Z,33.20
2023-04-09T16:40:27.790Z,36.47
2023-04-09T16:42:55.617Z,34.20
2023-04-09T16:45:23.661Z,33.87
2023-04-09T16:47:53.994Z,31.93
2023-04-09T16:50:21.940Z,32.57
2023-04-09T16:52:51.411Z,27.80
2023-04-09T16:55:21.382Z,26.77
2023-04-09T16:57:49.304Z,25.90
2023-04-09T17:00:18.240Z,29.77
2023-04-09T17:02:46.932Z,28.43
2023-04-09T17:05:15.885Z,26.67
2023-04-09T17:07:43.590Z,27.53
2023-04-09T17:10:12.905Z,26.53
2023-04-09T17:12:40.770Z,26.90
2023-04-09T17:15:09.849Z,27.20
2023-04-09T17:17:38.276Z,30.37
2023-04-09T17:20:07.404Z,25.00
2023-04-09T17:22:35.736Z,26.60
2023-04-09T17:25:04.764Z,28.70
2023-04-09T17:27:34.024Z,26.80
2023-04-09T17:30:01.977Z,28.43
2023-04-09T17:32:29.736Z,29.40
2023-04-09T17:34:59.443Z,25.60
2023-04-09T17:37:28.806Z,24.50
2023-04-09T17:39:56.593Z,29.47
2023-04-09T17:42:24.555Z,26.30
2023-04-09T17:44:53.701Z,29.57
2023-04-09T17:47:21.502Z,27.77
2023-04-09T17:49:49.261Z,29.77
2023-04-09T17:52:17.035Z,29.27
2023-04-09T17:54:45.736Z,30.10
2023-04-09T17:57:13.594Z,29.87
2023-04-09T17:59:41.374Z,27.63
2023-04-09T18:02:10.769Z,27.83
2023-04-09T18:04:39.100Z,30.87
2023-04-09T18:07:07.832Z,28.60
2023-04-09T18:09:35.615Z,28.07
2023-04-09T18:12:03.346Z,29.60
2023-04-09T18:14:32.362Z,30.60
2023-04-09T18:17:00.980Z,28.67
2023-04-09T18:19:30.186Z,30.17
2023-04-09T18:21:57.921Z,31.67
2023-04-09T18:24:26.293Z,28.87
2023-04-09T18:26:54.022Z,27.27
2023-04-09T18:29:21.816Z,28.97
2023-04-09T18:31:49.610Z,27.97
2023-04-09T18:34:17.348Z,36.33
2023-04-09T18:36:47.254Z,30.97
2023-04-09T18:39:15.209Z,27.23
2023-04-09T18:41:44.083Z,29.07
2023-04-09T18:44:11.938Z,28.13
2023-04-09T18:46:39.855Z,31.30
2023-04-09T18:49:07.567Z,30.40
2023-04-09T18:51:35.357Z,29.07
2023-04-09T18:54:04.448Z,31.73
2023-04-09T18:56:32.275Z,32.93
2023-04-09T18:58:59.970Z,30.93
2023-04-09T19:01:27.690Z,32.40
2023-04-09T19:03:55.670Z,26.40
2023-04-09T19:06:25.455Z,29.90
2023-04-09T19:08:57.855Z,29.67
2023-04-09T19:11:26.953Z,30.20
2023-04-09T19:13:54.680Z,32.50
2023-04-09T19:16:22.542Z,32.83
2023-04-09T19:18:50.274Z,30.80
2023-04-09T19:21:18.516Z,29.63
2023-04-09T19:23:46.746Z,37.77
2023-04-09T19:26:14.722Z,28.20
2023-04-09T19:28:43.775Z,29.57
2023-04-09T19:31:14.159Z,31.00
2023-04-09T19:33:41.903Z,28.77
2023-04-09T19:36:09.601Z,26.20
2023-04-09T19:38:37.313Z,27.83
2023-04-09T19:41:05.344Z,28.55
2023-04-09T19:43:33.186Z,35.50
2023-04-09T19:46:05.825Z,29.20
2023-04-09T19:48:33.565Z,29.90
2023-04-09T19:51:01.970Z,30.85
2023-04-09T19:53:30.903Z,30.40
2023-04-09T19:55:58.615Z,31.67
2023-04-09T19:58:26.397Z,29.20
2023-04-09T20:00:54.781Z,30.40
2023-04-09T20:03:24.023Z,32.47
2023-04-09T20:05:51.847Z,32.33
2023-04-09T20:08:19.564Z,29.33
2023-04-09T20:10:47.684Z,33.07
2023-04-09T20:13:15.457Z,28.73
2023-04-09T20:15:43.597Z,34.40
2023-04-09T20:18:11.571Z,36.20
2023-04-09T20:20:40.804Z,35.93
2023-04-09T20:23:08.517Z,34.30
2023-04-09T20:25:36.646Z,32.30
2023-04-09T20:28:04.766Z,31.53
2023-04-09T20:30:32.910Z,35.43
2023-04-09T20:33:01.260Z,38.13
2023-04-09T20:35:29.072Z,32.77
2023-04-09T20:37:58.148Z,32.90
2023-04-09T20:40:26.229Z,35.07
2023-04-09T20:42:53.905Z,38.90
2023-04-09T20:45:21.602Z,32.57
2023-04-09T20:47:49.363Z,35.50
2023-04-09T20:50:17.320Z,31.20
2023-04-09T20:52:45.064Z,34.17
2023-04-09T20:55:14.146Z,33.33
2023-04-09T20:57:42.319Z,33.20
2023-04-09T21:00:11.141Z,35.37
2023-04-09T21:02:40.486Z,32.23
2023-04-09T21:05:19.693Z,35.13
2023-04-09T21:07:51.137Z,32.30
2023-04-09T21:10:20.285Z,30.47
2023-04-09T21:12:48.155Z,33.57
2023-04-09T21:15:16.063Z,33.80
2023-04-09T21:17:43.849Z,34.33
2023-04-09T21:20:12.584Z,33.10
2023-04-09T21:22:40.388Z,30.63
2023-04-09T21:25:08.779Z,35.60
2023-04-09T21:27:37.854Z,31.17
2023-04-09T21:30:06.380Z,30.13
2023-04-09T21:32:34.167Z,31.90
2023-04-09T21:35:01.917Z,31.17
2023-04-09T21:37:31.924Z,30.93
2023-04-09T21:39:59.650Z,31.03
2023-04-09T21:42:27.587Z,29.47
2023-04-09T21:44:56.627Z,32.93
2023-04-09T21:47:24.561Z,30.00
2023-04-09T21:49:52.307Z,30.53
2023-04-09T21:52:20.059Z,31.97
2023-04-09T21:54:47.773Z,31.40
2023-04-09T21:57:15.845Z,29.50
2023-04-09T21:59:43.567Z,29.23
2023-04-09T22:02:12.740Z,29.17
2023-04-09T22:04:42.432Z,33.87
2023-04-09T22:07:11.454Z,30.07
2023-04-09T22:09:39.270Z,30.30
2023-04-09T22:12:07.180Z,31.37
2023-04-09T22:14:34.857Z,29.63
2023-04-09T22:17:03.394Z,29.50
2023-04-09T22:19:33.908Z,33.43
2023-04-09T22:22:01.630Z,31.53
2023-04-09T22:24:30.238Z,28.17
2023-04-09T22:26:59.237Z,29.00
2023-04-09T22:29:27.629Z,31.13
2023-04-09T22:31:55.685Z,34.20
2023-04-09T22:34:30.025Z,27.83
2023-04-09T22:36:59.040Z,31.33
2023-04-09T22:39:27.035Z,29.90
2023-04-09T22:41:54.733Z,30.93
2023-04-09T22:44:22.495Z,31.60
2023-04-09T22:46:50.285Z,32.17
2023-04-09T22:49:18.305Z,29.40
2023-04-09T22:51:46.331Z,27.27
2023-04-09T22:54:15.544Z,36.63
2023-04-09T22:56:44.633Z,31.73
2023-04-09T22:59:12.427Z,30.23
2023-04-09T23:01:40.264Z,31.17
2023-04-09T23:04:08.153Z,30.67
2023-04-09T23:06:35.919Z,29.60
2023-04-09T23:09:03.696Z,32.63
2023-04-09T23:11:32.700Z,29.70
2023-04-09T23:14:00.397Z,34.50
2023-04-09T23:16:28.096Z,30.93
2023-04-09T23:18:56.162Z,32.07
2023-04-09T23:21:24.062Z,32.50
2023-04-09T23:23:52.027Z,29.77
2023-04-09T23:26:19.923Z,26.87
2023-04-09T23:28:48.977Z,27.23
2023-04-09T23:31:17.098Z,31.70
2023-04-09T23:33:44.804Z,30.63
2023-04-09T23:36:12.466Z,27.77
2023-04-09T23:38:43.641Z,33.47
2023-04-09T23:41:11.345Z,26.80
2023-04-09T23:43:39.054Z,31.23
2023-04-09T23:46:08.171Z,28.87
2023-04-09T23:48:35.940Z,33.10
2023-04-09T23:51:03.613Z,27.47
2023-04-09T23:53:31.291Z,26.53
2023-04-09T23:55:59.493Z,30.87
2023-04-09T23:58:27.191Z,33.63
